sensor_id;sensor_type;location;lat;lon;timestamp;pressure;altitude;pressure_sealevel;temperature;humidity
34674;BME280;20879;55.668;37.858;2022-10-16T00:00:42;101041.31;;;3.67;78.13
34674;BME280;20879;55.668;37.858;2022-10-16T00:03:12;101044.59;;;3.63;78.56
34674;BME280;20879;55.668;37.858;2022-10-16T00:05:42;101037.75;;;3.62;78.27
34674;BME280;20879;55.668;37.858;2022-10-16T00:08:12;101033.28;;;3.56;78.54
34674;BME280;20879;55.668;37.858;2022-10-16T00:10:41;101039.34;;;3.60;78.72
34674;BME280;20879;55.668;37.858;2022-10-16T00:13:13;101031.56;;;3.57;79.01
34674;BME280;20879;55.668;37.858;2022-10-16T00:15:43;101046.03;;;3.55;78.78
34674;BME280;20879;55.668;37.858;2022-10-16T00:18:13;101042.53;;;3.53;78.92
34674;BME280;20879;55.668;37.858;2022-10-16T00:20:43;101038.00;;;3.45;79.14
34674;BME280;20879;55.668;37.858;2022-10-16T00:23:31;101042.41;;;3.49;79.23
34674;BME280;20879;55.668;37.858;2022-10-16T00:26:02;101054.41;;;3.50;78.97
34674;BME280;20879;55.668;37.858;2022-10-16T00:28:35;101057.69;;;3.46;79.65
34674;BME280;20879;55.668;37.858;2022-10-16T00:31:05;101053.09;;;3.38;79.45
34674;BME280;20879;55.668;37.858;2022-10-16T00:33:35;101062.50;;;3.37;79.95
34674;BME280;20879;55.668;37.858;2022-10-16T00:36:06;101060.72;;;3.36;79.83
34674;BME280;20879;55.668;37.858;2022-10-16T00:38:36;101058.81;;;3.30;80.02
34674;BME280;20879;55.668;37.858;2022-10-16T00:41:14;101057.16;;;3.31;80.11
34674;BME280;20879;55.668;37.858;2022-10-16T00:43:47;101049.34;;;3.28;80.08
34674;BME280;20879;55.668;37.858;2022-10-16T00:46:20;101061.31;;;3.29;80.45
34674;BME280;20879;55.668;37.858;2022-10-16T00:48:52;101061.16;;;3.24;80.24
34674;BME280;20879;55.668;37.858;2022-10-16T00:51:31;101058.56;;;3.23;80.51
34674;BME280;20879;55.668;37.858;2022-10-16T00:54:02;101055.84;;;3.18;80.13
34674;BME280;20879;55.668;37.858;2022-10-16T00:56:33;101064.38;;;3.19;80.28
34674;BME280;20879;55.668;37.858;2022-10-16T00:59:07;101062.56;;;3.16;81.17
34674;BME280;20879;55.668;37.858;2022-10-16T01:01:39;101068.28;;;3.09;80.96
34674;BME280;20879;55.668;37.858;2022-10-16T01:04:13;101063.00;;;3.04;80.80
34674;BME280;20879;55.668;37.858;2022-10-16T01:06:47;101068.00;;;3.01;81.57
34674;BME280;20879;55.668;37.858;2022-10-16T01:09:31;101069.53;;;2.96;81.82
34674;BME280;20879;55.668;37.858;2022-10-16T01:12:08;101066.03;;;2.94;81.60
34674;BME280;20879;55.668;37.858;2022-10-16T01:14:45;101074.53;;;2.93;82.26
34674;BME280;20879;55.668;37.858;2022-10-16T01:17:19;101078.59;;;2.88;82.47
34674;BME280;20879;55.668;37.858;2022-10-16T01:20:02;101052.41;;;2.72;82.86
34674;BME280;20879;55.668;37.858;2022-10-16T01:22:39;101075.00;;;2.83;82.71
34674;BME280;20879;55.668;37.858;2022-10-16T01:25:19;101057.41;;;2.69;83.16
34674;BME280;20879;55.668;37.858;2022-10-16T01:27:55;101080.88;;;2.80;83.02
34674;BME280;20879;55.668;37.858;2022-10-16T01:30:32;101075.69;;;2.78;83.32
34674;BME280;20879;55.668;37.858;2022-10-16T01:33:07;101073.81;;;2.74;83.32
34674;BME280;20879;55.668;37.858;2022-10-16T01:35:41;101081.56;;;2.76;83.05
34674;BME280;20879;55.668;37.858;2022-10-16T01:38:15;101086.50;;;2.71;83.00
34674;BME280;20879;55.668;37.858;2022-10-16T01:40:48;101078.59;;;2.65;83.09
34674;BME280;20879;55.668;37.858;2022-10-16T01:43:24;101087.19;;;2.67;84.03
34674;BME280;20879;55.668;37.858;2022-10-16T01:46:00;101083.50;;;2.60;83.71
34674;BME280;20879;55.668;37.858;2022-10-16T01:48:31;101096.44;;;2.64;83.99
34674;BME280;20879;55.668;37.858;2022-10-16T01:51:08;101086.00;;;2.59;84.29
34674;BME280;20879;55.668;37.858;2022-10-16T01:53:40;101096.28;;;2.60;83.66
34674;BME280;20879;55.668;37.858;2022-10-16T01:56:12;101066.69;;;2.44;84.05
34674;BME280;20879;55.668;37.858;2022-10-16T01:58:48;101091.94;;;2.58;84.45
34674;BME280;20879;55.668;37.858;2022-10-16T02:01:26;101092.81;;;2.58;84.20
34674;BME280;20879;55.668;37.858;2022-10-16T02:04:01;101097.06;;;2.58;84.44
34674;BME280;20879;55.668;37.858;2022-10-16T02:06:33;101090.25;;;2.58;83.88
34674;BME280;20879;55.668;37.858;2022-10-16T02:09:03;101092.75;;;2.57;84.20
34674;BME280;20879;55.668;37.858;2022-10-16T02:11:37;101093.63;;;2.57;84.29
34674;BME280;20879;55.668;37.858;2022-10-16T02:14:10;101092.81;;;2.58;84.38
34674;BME280;20879;55.668;37.858;2022-10-16T02:16:43;101090.19;;;2.57;84.32
34674;BME280;20879;55.668;37.858;2022-10-16T02:19:13;101105.53;;;2.57;83.78
34674;BME280;20879;55.668;37.858;2022-10-16T02:21:45;101097.75;;;2.54;84.56
34674;BME280;20879;55.668;37.858;2022-10-16T02:24:22;101095.19;;;2.54;84.62
34674;BME280;20879;55.668;37.858;2022-10-16T02:27:00;101090.75;;;2.50;84.69
34674;BME280;20879;55.668;37.858;2022-10-16T02:29:38;101095.00;;;2.49;84.88
34674;BME280;20879;55.668;37.858;2022-10-16T02:32:12;101108.59;;;2.48;84.47
34674;BME280;20879;55.668;37.858;2022-10-16T02:34:45;101102.28;;;2.40;84.55
34674;BME280;20879;55.668;37.858;2022-10-16T02:37:20;101108.44;;;2.43;84.53
34674;BME280;20879;55.668;37.858;2022-10-16T02:39:49;101108.44;;;2.43;84.59
34674;BME280;20879;55.668;37.858;2022-10-16T02:42:19;101103.25;;;2.42;84.61
34674;BME280;20879;55.668;37.858;2022-10-16T02:44:50;101116.72;;;2.38;84.98
34674;BME280;20879;55.668;37.858;2022-10-16T02:47:19;101110.84;;;2.40;85.05
34674;BME280;20879;55.668;37.858;2022-10-16T02:49:48;101096.09;;;2.33;85.16
34674;BME280;20879;55.668;37.858;2022-10-16T02:52:17;101116.78;;;2.39;84.86
34674;BME280;20879;55.668;37.858;2022-10-16T02:54:47;101113.22;;;2.36;84.98
34674;BME280;20879;55.668;37.858;2022-10-16T02:57:16;101118.19;;;2.33;85.19
34674;BME280;20879;55.668;37.858;2022-10-16T02:59:45;101114.78;;;2.32;85.35
34674;BME280;20879;55.668;37.858;2022-10-16T03:02:27;101113.91;;;2.32;85.58
34674;BME280;20879;55.668;37.858;2022-10-16T03:05:03;101113.09;;;2.33;85.56
34674;BME280;20879;55.668;37.858;2022-10-16T03:07:32;101118.06;;;2.30;85.63
34674;BME280;20879;55.668;37.858;2022-10-16T03:10:02;101123.13;;;2.28;85.58
34674;BME280;20879;55.668;37.858;2022-10-16T03:12:31;101115.28;;;2.23;85.60
34674;BME280;20879;55.668;37.858;2022-10-16T03:15:07;101116.97;;;2.23;85.55
34674;BME280;20879;55.668;37.858;2022-10-16T03:17:38;101117.81;;;2.23;85.54
34674;BME280;20879;55.668;37.858;2022-10-16T03:20:08;101122.00;;;2.21;85.42
34674;BME280;20879;55.668;37.858;2022-10-16T03:22:37;101122.75;;;2.19;85.85
34674;BME280;20879;55.668;37.858;2022-10-16T03:25:07;101120.13;;;2.17;85.80
34674;BME280;20879;55.668;37.858;2022-10-16T03:27:36;101121.00;;;2.18;85.52
34674;BME280;20879;55.668;37.858;2022-10-16T03:30:07;101134.59;;;2.17;85.90
34674;BME280;20879;55.668;37.858;2022-10-16T03:32:39;101116.56;;;2.14;85.82
34674;BME280;20879;55.668;37.858;2022-10-16T03:35:13;101132.97;;;2.19;85.87
34674;BME280;20879;55.668;37.858;2022-10-16T03:37:42;101132.78;;;2.14;85.83
34674;BME280;20879;55.668;37.858;2022-10-16T03:40:17;101137.84;;;2.13;85.68
34674;BME280;20879;55.668;37.858;2022-10-16T03:42:47;101134.25;;;2.09;85.71
34674;BME280;20879;55.668;37.858;2022-10-16T03:45:16;101118.38;;;1.95;85.86
34674;BME280;20879;55.668;37.858;2022-10-16T03:47:47;101135.84;;;2.05;86.26
34674;BME280;20879;55.668;37.858;2022-10-16T03:50:16;101142.47;;;2.02;85.88
34674;BME280;20879;55.668;37.858;2022-10-16T03:52:51;101139.00;;;2.00;85.86
34674;BME280;20879;55.668;37.858;2022-10-16T03:55:21;101134.56;;;1.96;86.17
34674;BME280;20879;55.668;37.858;2022-10-16T03:57:50;101134.56;;;1.96;86.29
34674;BME280;20879;55.668;37.858;2022-10-16T04:00:19;101137.06;;;1.94;86.22
34674;BME280;20879;55.668;37.858;2022-10-16T04:02:55;101140.47;;;1.95;86.30
34674;BME280;20879;55.668;37.858;2022-10-16T04:05:29;101141.28;;;1.94;86.53
34674;BME280;20879;55.668;37.858;2022-10-16T04:07:58;101130.88;;;1.89;86.74
34674;BME280;20879;55.668;37.858;2022-10-16T04:10:29;101137.06;;;1.94;86.50
34674;BME280;20879;55.668;37.858;2022-10-16T04:13:03;101143.09;;;1.96;86.30
34674;BME280;20879;55.668;37.858;2022-10-16T04:15:32;101139.66;;;1.96;86.64
34674;BME280;20879;55.668;37.858;2022-10-16T04:18:09;101143.44;;;2.04;86.24
34674;BME280;20879;55.668;37.858;2022-10-16T04:20:38;101137.56;;;2.06;86.47
34674;BME280;20879;55.668;37.858;2022-10-16T04:23:07;101148.75;;;2.08;86.41
34674;BME280;20879;55.668;37.858;2022-10-16T04:25:41;101138.56;;;2.10;86.44
34674;BME280;20879;55.668;37.858;2022-10-16T04:28:11;101136.94;;;2.12;86.01
34674;BME280;20879;55.668;37.858;2022-10-16T04:30:47;101142.34;;;2.18;86.40
34674;BME280;20879;55.668;37.858;2022-10-16T04:33:23;101142.47;;;2.21;86.19
34674;BME280;20879;55.668;37.858;2022-10-16T04:35:56;101139.97;;;2.23;85.99
34674;BME280;20879;55.668;37.858;2022-10-16T04:38:26;101150.69;;;2.35;85.58
34674;BME280;20879;55.668;37.858;2022-10-16T04:41:00;101154.56;;;2.47;85.64
34674;BME280;20879;55.668;37.858;2022-10-16T04:43:30;101149.38;;;2.66;84.50
34674;BME280;20879;55.668;37.858;2022-10-16T04:46:00;101150.00;;;2.82;83.84
34674;BME280;20879;55.668;37.858;2022-10-16T04:48:33;101151.91;;;2.87;83.29
34674;BME280;20879;55.668;37.858;2022-10-16T04:51:02;101151.88;;;2.86;83.18
34674;BME280;20879;55.668;37.858;2022-10-16T04:53:31;101153.59;;;2.87;83.46
34674;BME280;20879;55.668;37.858;2022-10-16T04:56:01;101150.47;;;2.94;83.21
34674;BME280;20879;55.668;37.858;2022-10-16T04:58:30;101155.00;;;3.01;82.58
34674;BME280;20879;55.668;37.858;2022-10-16T05:01:00;101149.78;;;2.98;82.39
34674;BME280;20879;55.668;37.858;2022-10-16T05:03:29;101157.53;;;3.22;82.19
34674;BME280;20879;55.668;37.858;2022-10-16T05:06:01;101153.31;;;3.24;81.61
34674;BME280;20879;55.668;37.858;2022-10-16T05:08:30;101157.84;;;3.31;81.65
34674;BME280;20879;55.668;37.858;2022-10-16T05:11:04;101139.66;;;3.24;80.95
34674;BME280;20879;55.668;37.858;2022-10-16T05:13:34;101162.41;;;3.39;80.63
34674;BME280;20879;55.668;37.858;2022-10-16T05:16:03;101156.28;;;3.35;81.00
34674;BME280;20879;55.668;37.858;2022-10-16T05:18:33;101158.13;;;3.39;80.97
34674;BME280;20879;55.668;37.858;2022-10-16T05:21:04;101153.91;;;3.40;80.47
34674;BME280;20879;55.668;37.858;2022-10-16T05:23:38;101157.59;;;3.48;80.46
34674;BME280;20879;55.668;37.858;2022-10-16T05:26:08;101158.59;;;3.52;80.19
34674;BME280;20879;55.668;37.858;2022-10-16T05:28:38;101140.69;;;3.52;79.73
34674;BME280;20879;55.668;37.858;2022-10-16T05:31:09;101173.72;;;3.68;79.66
34674;BME280;20879;55.668;37.858;2022-10-16T05:33:39;101160.91;;;3.68;79.60
34674;BME280;20879;55.668;37.858;2022-10-16T05:36:10;101170.59;;;3.77;79.33
34674;BME280;20879;55.668;37.858;2022-10-16T05:38:44;101165.53;;;3.78;79.25
34674;BME280;20879;55.668;37.858;2022-10-16T05:41:14;101165.69;;;3.83;78.80
34674;BME280;20879;55.668;37.858;2022-10-16T05:43:48;101177.25;;;3.96;78.74
34674;BME280;20879;55.668;37.858;2022-10-16T05:46:17;101178.28;;;4.01;78.52
34674;BME280;20879;55.668;37.858;2022-10-16T05:48:52;101179.44;;;4.09;78.25
34674;BME280;20879;55.668;37.858;2022-10-16T05:51:23;101178.78;;;4.15;78.17
34674;BME280;20879;55.668;37.858;2022-10-16T05:53:58;101184.97;;;4.22;77.97
34674;BME280;20879;55.668;37.858;2022-10-16T05:56:27;101174.94;;;4.28;77.95
34674;BME280;20879;55.668;37.858;2022-10-16T05:59:03;101170.88;;;4.34;77.61
34674;BME280;20879;55.668;37.858;2022-10-16T06:01:32;101179.75;;;4.44;77.50
34674;BME280;20879;55.668;37.858;2022-10-16T06:04:02;101174.78;;;4.49;77.01
34674;BME280;20879;55.668;37.858;2022-10-16T06:06:33;101184.13;;;4.74;76.22
34674;BME280;20879;55.668;37.858;2022-10-16T06:09:03;101181.31;;;4.92;75.38
34674;BME280;20879;55.668;37.858;2022-10-16T06:11:33;101177.34;;;5.03;75.11
34674;BME280;20879;55.668;37.858;2022-10-16T06:14:02;101181.06;;;5.13;74.77
34674;BME280;20879;55.668;37.858;2022-10-16T06:16:38;101179.31;;;5.12;74.50
34674;BME280;20879;55.668;37.858;2022-10-16T06:19:07;101187.75;;;5.08;74.72
34674;BME280;20879;55.668;37.858;2022-10-16T06:21:38;101192.88;;;5.08;74.23
34674;BME280;20879;55.668;37.858;2022-10-16T06:24:13;101187.66;;;5.05;74.21
34674;BME280;20879;55.668;37.858;2022-10-16T06:26:47;101185.66;;;5.23;73.93
34674;BME280;20879;55.668;37.858;2022-10-16T06:29:16;101185.50;;;5.46;73.24
34674;BME280;20879;55.668;37.858;2022-10-16T06:31:45;101185.50;;;5.46;72.85
34674;BME280;20879;55.668;37.858;2022-10-16T06:34:14;101181.81;;;5.38;73.06
34674;BME280;20879;55.668;37.858;2022-10-16T06:36:46;101181.69;;;5.33;73.33
34674;BME280;20879;55.668;37.858;2022-10-16T06:39:15;101193.53;;;5.30;73.36
34674;BME280;20879;55.668;37.858;2022-10-16T06:41:44;101190.81;;;5.23;73.47
34674;BME280;20879;55.668;37.858;2022-10-16T06:44:16;101195.13;;;5.24;73.36
34674;BME280;20879;55.668;37.858;2022-10-16T06:46:45;101194.41;;;5.29;73.27
34674;BME280;20879;55.668;37.858;2022-10-16T06:49:14;101198.09;;;5.38;73.41
34674;BME280;20879;55.668;37.858;2022-10-16T06:51:50;101190.44;;;5.40;73.06
34674;BME280;20879;55.668;37.858;2022-10-16T06:54:24;101199.19;;;5.47;72.77
34674;BME280;20879;55.668;37.858;2022-10-16T06:56:53;101197.66;;;5.53;72.94
34674;BME280;20879;55.668;37.858;2022-10-16T06:59:27;101186.53;;;5.53;72.76
34674;BME280;20879;55.668;37.858;2022-10-16T07:01:57;101200.59;;;5.66;72.26
34674;BME280;20879;55.668;37.858;2022-10-16T07:04:26;101206.81;;;5.74;72.23
34674;BME280;20879;55.668;37.858;2022-10-16T07:06:58;101194.03;;;5.75;71.84
34674;BME280;20879;55.668;37.858;2022-10-16T07:09:34;101202.13;;;5.89;71.31
34674;BME280;20879;55.668;37.858;2022-10-16T07:12:04;101201.56;;;6.00;71.36
34674;BME280;20879;55.668;37.858;2022-10-16T07:14:59;101195.00;;;6.09;70.83
34674;BME280;20879;55.668;37.858;2022-10-16T07:17:29;101209.06;;;6.22;70.69
34674;BME280;20879;55.668;37.858;2022-10-16T07:19:59;101202.34;;;6.29;70.11
34674;BME280;20879;55.668;37.858;2022-10-16T07:22:31;101211.97;;;6.36;70.29
34674;BME280;20879;55.668;37.858;2022-10-16T07:25:01;101213.13;;;6.47;69.81
34674;BME280;20879;55.668;37.858;2022-10-16T07:27:30;101197.63;;;6.44;69.94
34674;BME280;20879;55.668;37.858;2022-10-16T07:29:59;101212.53;;;6.58;69.50
34674;BME280;20879;55.668;37.858;2022-10-16T07:32:35;101215.34;;;6.69;69.29
34674;BME280;20879;55.668;37.858;2022-10-16T07:35:05;101209.47;;;6.73;68.88
34674;BME280;20879;55.668;37.858;2022-10-16T07:37:47;101204.41;;;6.77;68.08
34674;BME280;20879;55.668;37.858;2022-10-16T07:40:16;101210.53;;;6.81;68.88
34674;BME280;20879;55.668;37.858;2022-10-16T07:42:45;101206.34;;;6.86;68.41
34674;BME280;20879;55.668;37.858;2022-10-16T07:45:15;101207.19;;;6.87;68.60
34674;BME280;20879;55.668;37.858;2022-10-16T07:47:44;101205.66;;;6.93;68.63
34674;BME280;20879;55.668;37.858;2022-10-16T07:50:18;101214.25;;;6.94;68.57
34674;BME280;20879;55.668;37.858;2022-10-16T07:52:49;101211.69;;;6.95;68.12
34674;BME280;20879;55.668;37.858;2022-10-16T07:55:24;101209.31;;;7.03;68.08
34674;BME280;20879;55.668;37.858;2022-10-16T07:57:53;101205.09;;;7.07;67.88
34674;BME280;20879;55.668;37.858;2022-10-16T08:00:23;101204.38;;;7.12;67.69
34674;BME280;20879;55.668;37.858;2022-10-16T08:02:57;101188.84;;;7.09;67.73
34674;BME280;20879;55.668;37.858;2022-10-16T08:05:32;101206.38;;;7.26;67.05
34674;BME280;20879;55.668;37.858;2022-10-16T08:08:04;101202.28;;;7.34;67.19
34674;BME280;20879;55.668;37.858;2022-10-16T08:10:33;101206.72;;;7.41;67.37
34674;BME280;20879;55.668;37.858;2022-10-16T08:13:08;101204.28;;;7.47;66.61
34674;BME280;20879;55.668;37.858;2022-10-16T08:15:37;101206.88;;;7.49;67.20
34674;BME280;20879;55.668;37.858;2022-10-16T08:18:09;101207.78;;;7.51;66.69
34674;BME280;20879;55.668;37.858;2022-10-16T08:20:39;101212.16;;;7.55;66.82
34674;BME280;20879;55.668;37.858;2022-10-16T08:23:12;101206.25;;;7.59;66.87
34674;BME280;20879;55.668;37.858;2022-10-16T08:25:41;101201.09;;;7.59;66.69
34674;BME280;20879;55.668;37.858;2022-10-16T08:28:11;101206.38;;;7.65;66.74
34674;BME280;20879;55.668;37.858;2022-10-16T08:30:45;101208.22;;;7.73;66.22
34674;BME280;20879;55.668;37.858;2022-10-16T08:33:14;101197.22;;;7.80;66.12
34674;BME280;20879;55.668;37.858;2022-10-16T08:35:50;101206.91;;;7.93;65.76
34674;BME280;20879;55.668;37.858;2022-10-16T08:38:22;101205.34;;;8.00;65.66
34674;BME280;20879;55.668;37.858;2022-10-16T08:41:10;101197.78;;;8.09;65.08
34674;BME280;20879;55.668;37.858;2022-10-16T08:44:04;101203.94;;;8.16;64.65
34674;BME280;20879;55.668;37.858;2022-10-16T08:46:45;101205.72;;;8.20;64.99
34674;BME280;20879;55.668;37.858;2022-10-16T08:49:24;101189.53;;;8.29;64.43
34674;BME280;20879;55.668;37.858;2022-10-16T08:51:55;101188.88;;;8.40;63.94
34674;BME280;20879;55.668;37.858;2022-10-16T08:54:31;101207.13;;;8.50;63.18
34674;BME280;20879;55.668;37.858;2022-10-16T08:57:09;101175.38;;;8.54;63.02
34674;BME280;20879;55.668;37.858;2022-10-16T08:59:41;101170.44;;;8.69;62.50
34674;BME280;20879;55.668;37.858;2022-10-16T09:02:24;101155.63;;;8.57;61.98
34674;BME280;20879;55.668;37.858;2022-10-16T09:05:19;101181.91;;;8.87;61.82
34674;BME280;20879;55.668;37.858;2022-10-16T09:08:00;101191.44;;;8.91;61.24
34674;BME280;20879;55.668;37.858;2022-10-16T09:10:50;101182.97;;;9.00;60.94
34674;BME280;20879;55.668;37.858;2022-10-16T09:13:27;101177.84;;;9.04;60.12
34674;BME280;20879;55.668;37.858;2022-10-16T09:16:03;101184.00;;;9.11;59.58
34674;BME280;20879;55.668;37.858;2022-10-16T09:18:44;101180.53;;;9.12;59.61
34674;BME280;20879;55.668;37.858;2022-10-16T09:21:19;101185.88;;;9.23;59.04
34674;BME280;20879;55.668;37.858;2022-10-16T09:23:50;101191.94;;;9.26;58.66
34674;BME280;20879;55.668;37.858;2022-10-16T09:26:22;101184.25;;;9.31;58.56
34674;BME280;20879;55.668;37.858;2022-10-16T09:28:56;101180.03;;;9.36;58.69
34674;BME280;20879;55.668;37.858;2022-10-16T09:31:31;101173.13;;;9.38;58.35
34674;BME280;20879;55.668;37.858;2022-10-16T09:34:02;101179.28;;;9.47;57.77
34674;BME280;20879;55.668;37.858;2022-10-16T09:36:39;101174.19;;;9.53;57.57
34674;BME280;20879;55.668;37.858;2022-10-16T09:39:10;101171.63;;;9.56;56.67
34674;BME280;20879;55.668;37.858;2022-10-16T09:41:44;101180.34;;;9.61;56.68
34674;BME280;20879;55.668;37.858;2022-10-16T09:44:19;101168.31;;;9.66;56.03
34674;BME280;20879;55.668;37.858;2022-10-16T09:47:02;101167.53;;;9.72;55.79
34674;BME280;20879;55.668;37.858;2022-10-16T09:49:31;101132.78;;;9.50;55.80
34674;BME280;20879;55.668;37.858;2022-10-16T09:52:05;101173.69;;;9.82;54.48
34674;BME280;20879;55.668;37.858;2022-10-16T09:54:34;101156.47;;;9.87;54.44
34674;BME280;20879;55.668;37.858;2022-10-16T09:57:16;101165.97;;;9.88;53.36
34674;BME280;20879;55.668;37.858;2022-10-16T09:59:47;101161.72;;;9.93;53.79
34674;BME280;20879;55.668;37.858;2022-10-16T10:02:18;101161.72;;;9.93;53.19
34674;BME280;20879;55.668;37.858;2022-10-16T10:04:50;101159.19;;;9.99;53.20
34674;BME280;20879;55.668;37.858;2022-10-16T10:07:28;101167.00;;;10.04;53.22
34674;BME280;20879;55.668;37.858;2022-10-16T10:10:03;101145.47;;;10.06;53.28
34674;BME280;20879;55.668;37.858;2022-10-16T10:12:39;101160.19;;;10.10;52.92
34674;BME280;20879;55.668;37.858;2022-10-16T10:15:15;101153.28;;;10.09;52.68
34674;BME280;20879;55.668;37.858;2022-10-16T10:17:49;101157.63;;;10.15;52.89
34674;BME280;20879;55.668;37.858;2022-10-16T10:20:26;101135.22;;;10.17;52.90
34674;BME280;20879;55.668;37.858;2022-10-16T10:23:21;101145.63;;;10.23;52.33
34674;BME280;20879;55.668;37.858;2022-10-16T10:25:54;101142.16;;;10.23;52.05
34674;BME280;20879;55.668;37.858;2022-10-16T10:28:47;101142.19;;;10.26;52.13
34674;BME280;20879;55.668;37.858;2022-10-16T10:31:25;101143.78;;;10.13;51.97
34674;BME280;20879;55.668;37.858;2022-10-16T10:34:01;101144.75;;;10.21;52.09
34674;BME280;20879;55.668;37.858;2022-10-16T10:36:40;101127.44;;;10.15;52.18
34674;BME280;20879;55.668;37.858;2022-10-16T10:39:19;101144.84;;;10.32;52.43
34674;BME280;20879;55.668;37.858;2022-10-16T10:42:11;101142.38;;;10.41;52.08
34674;BME280;20879;55.668;37.858;2022-10-16T10:45:11;101128.56;;;10.42;51.99
34674;BME280;20879;55.668;37.858;2022-10-16T10:47:59;101123.38;;;10.42;51.67
34674;BME280;20879;55.668;37.858;2022-10-16T10:50:38;101138.91;;;10.42;51.60
34674;BME280;20879;55.668;37.858;2022-10-16T10:53:18;101128.56;;;10.44;51.38
34674;BME280;20879;55.668;37.858;2022-10-16T10:55:52;101132.91;;;10.48;51.66
34674;BME280;20879;55.668;37.858;2022-10-16T10:58:49;101125.97;;;10.44;51.41
34674;BME280;20879;55.668;37.858;2022-10-16T11:01:39;101134.59;;;10.41;51.67
34674;BME280;20879;55.668;37.858;2022-10-16T11:07:19;101121.69;;;10.44;51.49
34674;BME280;20879;55.668;37.858;2022-10-16T11:09:52;101136.38;;;10.48;51.39
34674;BME280;20879;55.668;37.858;2022-10-16T11:12:25;101113.03;;;10.44;51.08
34674;BME280;20879;55.668;37.858;2022-10-16T11:15:02;101108.78;;;10.51;51.30
34674;BME280;20879;55.668;37.858;2022-10-16T11:17:38;101100.00;;;10.35;51.42
34674;BME280;20879;55.668;37.858;2022-10-16T11:20:14;101122.56;;;10.51;51.63
34674;BME280;20879;55.668;37.858;2022-10-16T11:22:48;101114.78;;;10.49;51.44
34674;BME280;20879;55.668;37.858;2022-10-16T11:25:22;101124.31;;;10.51;51.16
34674;BME280;20879;55.668;37.858;2022-10-16T11:27:57;101119.09;;;10.47;51.36
34674;BME280;20879;55.668;37.858;2022-10-16T11:30:33;101096.59;;;10.37;51.51
34674;BME280;20879;55.668;37.858;2022-10-16T11:33:20;101112.19;;;10.46;51.62
34674;BME280;20879;55.668;37.858;2022-10-16T11:35:55;101115.66;;;10.45;51.62
34674;BME280;20879;55.668;37.858;2022-10-16T11:38:30;101107.91;;;10.48;51.54
34674;BME280;20879;55.668;37.858;2022-10-16T11:41:10;101101.84;;;10.46;51.38
34674;BME280;20879;55.668;37.858;2022-10-16T11:43:44;101108.72;;;10.44;51.60
34674;BME280;20879;55.668;37.858;2022-10-16T11:46:19;101105.28;;;10.45;51.75
34674;BME280;20879;55.668;37.858;2022-10-16T11:48:55;101113.91;;;10.43;51.64
34674;BME280;20879;55.668;37.858;2022-10-16T11:51:33;101100.06;;;10.42;51.90
34674;BME280;20879;55.668;37.858;2022-10-16T11:54:16;101102.66;;;10.44;51.90
34674;BME280;20879;55.668;37.858;2022-10-16T11:56:57;101100.06;;;10.44;51.93
34674;BME280;20879;55.668;37.858;2022-10-16T11:59:34;101087.13;;;10.42;51.41
34674;BME280;20879;55.668;37.858;2022-10-16T12:02:23;101105.31;;;10.47;51.47
34674;BME280;20879;55.668;37.858;2022-10-16T12:05:11;101108.75;;;10.47;51.71
34674;BME280;20879;55.668;37.858;2022-10-16T12:07:48;101090.50;;;10.35;51.84
34674;BME280;20879;55.668;37.858;2022-10-16T12:10:21;101094.06;;;10.45;51.48
34674;BME280;20879;55.668;37.858;2022-10-16T12:12:54;101089.72;;;10.44;52.04
34674;BME280;20879;55.668;37.858;2022-10-16T12:15:26;101097.47;;;10.42;51.88
34674;BME280;20879;55.668;37.858;2022-10-16T12:18:23;101102.63;;;10.36;52.22
34674;BME280;20879;55.668;37.858;2022-10-16T12:20:58;101101.75;;;10.34;52.25
34674;BME280;20879;55.668;37.858;2022-10-16T12:23:38;101099.97;;;10.33;51.96
34674;BME280;20879;55.668;37.858;2022-10-16T12:26:25;101078.31;;;10.23;52.41
34674;BME280;20879;55.668;37.858;2022-10-16T12:29:13;101103.47;;;10.35;52.41
34674;BME280;20879;55.668;37.858;2022-10-16T12:31:49;101102.56;;;10.31;52.43
34674;BME280;20879;55.668;37.858;2022-10-16T12:34:39;101066.09;;;10.05;52.59
34674;BME280;20879;55.668;37.858;2022-10-16T12:37:18;101084.38;;;10.25;52.35
34674;BME280;20879;55.668;37.858;2022-10-16T12:39:50;101091.31;;;10.28;52.27
34674;BME280;20879;55.668;37.858;2022-10-16T12:42:33;101088.72;;;10.28;52.03
34674;BME280;20879;55.668;37.858;2022-10-16T12:45:26;101083.50;;;10.23;52.64
34674;BME280;20879;55.668;37.858;2022-10-16T12:48:03;101082.63;;;10.20;52.87
34674;BME280;20879;55.668;37.858;2022-10-16T12:56:16;101086.69;;;9.93;52.32
34674;BME280;20879;55.668;37.858;2022-10-16T12:59:04;101077.16;;;9.86;52.46
34674;BME280;20879;55.668;37.858;2022-10-16T13:01:56;101092.72;;;9.92;52.71
34674;BME280;20879;55.668;37.858;2022-10-16T13:04:43;101088.41;;;9.94;53.07
34674;BME280;20879;55.668;37.858;2022-10-16T13:07:24;101075.44;;;9.91;52.88
34674;BME280;20879;55.668;37.858;2022-10-16T13:10:05;101086.72;;;9.94;53.02
34674;BME280;20879;55.668;37.858;2022-10-16T13:12:57;101075.44;;;9.89;53.00
34674;BME280;20879;55.668;37.858;2022-10-16T13:15:53;101085.94;;;10.03;53.23
34674;BME280;20879;55.668;37.858;2022-10-16T13:18:35;101090.19;;;9.98;53.26
34674;BME280;20879;55.668;37.858;2022-10-16T13:21:20;101087.56;;;9.95;53.06
34674;BME280;20879;55.668;37.858;2022-10-16T13:23:59;101080.59;;;9.88;53.14
34674;BME280;20879;55.668;37.858;2022-10-16T13:26:38;101080.59;;;9.88;53.37
34674;BME280;20879;55.668;37.858;2022-10-16T13:29:13;101077.19;;;9.90;52.85
34674;BME280;20879;55.668;37.858;2022-10-16T13:31:44;101094.44;;;9.91;53.27
34674;BME280;20879;55.668;37.858;2022-10-16T13:34:17;101083.16;;;9.85;53.14